sensor_id;sensor_type;location;lat;lon;timestamp;P1;durP1;ratioP1;P2;durP2;ratioP2
85054;SDS011;75391;48.300;16.352;2024-03-23T00:54:38;5.45;;;2.70;;
85054;SDS011;75391;48.300;16.352;2024-03-23T00:57:03;5.03;;;2.50;;
85054;SDS011;75391;48.300;16.352;2024-03-23T00:59:29;4.10;;;2.42;;
85054;SDS011;75391;48.300;16.352;2024-03-23T01:01:54;4.55;;;2.83;;
85054;SDS011;75391;48.300;16.352;2024-03-23T01:04:20;6.10;;;2.67;;
85054;SDS011;75391;48.300;16.352;2024-03-23T01:06:45;6.03;;;2.78;;
85054;SDS011;75391;48.300;16.352;2024-03-23T01:09:11;5.30;;;2.67;;
85054;SDS011;75391;48.300;16.352;2024-03-23T01:11:37;5.03;;;2.70;;
85054;SDS011;75391;48.300;16.352;2024-03-23T01:14:02;5.15;;;2.78;;
85054;SDS011;75391;48.300;16.352;2024-03-23T01:16:28;5.72;;;2.85;;
85054;SDS011;75391;48.300;16.352;2024-03-23T01:18:54;6.28;;;2.92;;
85054;SDS011;75391;48.300;16.352;2024-03-23T01:21:19;6.05;;;2.67;;
85054;SDS011;75391;48.300;16.352;2024-03-23T01:23:45;5.25;;;2.50;;
85054;SDS011;75391;48.300;16.352;2024-03-23T01:26:10;6.78;;;2.75;;
85054;SDS011;75391;48.300;16.352;2024-03-23T01:28:36;4.57;;;2.40;;
85054;SDS011;75391;48.300;16.352;2024-03-23T01:31:01;5.35;;;2.55;;
85054;SDS011;75391;48.300;16.352;2024-03-23T01:33:27;7.68;;;3.00;;
85054;SDS011;75391;48.300;16.352;2024-03-23T01:35:53;4.70;;;2.80;;
85054;SDS011;75391;48.300;16.352;2024-03-23T01:38:18;6.18;;;3.00;;
85054;SDS011;75391;48.300;16.352;2024-03-23T01:40:44;6.97;;;3.05;;
85054;SDS011;75391;48.300;16.352;2024-03-23T01:43:09;5.35;;;2.67;;
85054;SDS011;75391;48.300;16.352;2024-03-23T01:45:35;3.85;;;2.38;;
85054;SDS011;75391;48.300;16.352;2024-03-23T01:48:02;6.25;;;2.88;;
85054;SDS011;75391;48.300;16.352;2024-03-23T01:50:28;6.43;;;2.83;;
85054;SDS011;75391;48.300;16.352;2024-03-23T01:52:56;6.43;;;2.60;;
85054;SDS011;75391;48.300;16.352;2024-03-23T01:55:22;6.47;;;2.80;;
85054;SDS011;75391;48.300;16.352;2024-03-23T01:57:48;5.72;;;2.85;;
85054;SDS011;75391;48.300;16.352;2024-03-23T02:00:13;4.50;;;2.75;;
85054;SDS011;75391;48.300;16.352;2024-03-23T02:02:43;4.32;;;2.65;;
85054;SDS011;75391;48.300;16.352;2024-03-23T02:05:12;6.57;;;2.97;;
85054;SDS011;75391;48.300;16.352;2024-03-23T02:07:38;5.20;;;2.70;;
85054;SDS011;75391;48.300;16.352;2024-03-23T02:10:09;5.78;;;2.80;;
85054;SDS011;75391;48.300;16.352;2024-03-23T02:12:36;5.15;;;3.00;;
85054;SDS011;75391;48.300;16.352;2024-03-23T02:15:02;5.13;;;2.72;;
85054;SDS011;75391;48.300;16.352;2024-03-23T02:17:30;5.90;;;2.80;;
85054;SDS011;75391;48.300;16.352;2024-03-23T02:22:22;5.90;;;2.90;;
85054;SDS011;75391;48.300;16.352;2024-03-23T02:24:47;7.40;;;3.00;;
85054;SDS011;75391;48.300;16.352;2024-03-23T02:27:13;6.55;;;2.90;;
85054;SDS011;75391;48.300;16.352;2024-03-23T02:29:39;6.22;;;2.83;;
85054;SDS011;75391;48.300;16.352;2024-03-23T02:32:04;7.22;;;2.92;;
85054;SDS011;75391;48.300;16.352;2024-03-23T02:34:30;5.75;;;2.95;;
85054;SDS011;75391;48.300;16.352;2024-03-23T02:36:55;6.35;;;3.10;;
85054;SDS011;75391;48.300;16.352;2024-03-23T02:39:21;6.20;;;2.90;;
85054;SDS011;75391;48.300;16.352;2024-03-23T02:41:47;5.88;;;3.00;;
85054;SDS011;75391;48.300;16.352;2024-03-23T02:44:12;5.57;;;2.95;;
85054;SDS011;75391;48.300;16.352;2024-03-23T02:46:38;4.90;;;2.88;;
85054;SDS011;75391;48.300;16.352;2024-03-23T02:49:03;5.82;;;2.90;;
85054;SDS011;75391;48.300;16.352;2024-03-23T02:51:29;5.75;;;3.03;;
85054;SDS011;75391;48.300;16.352;2024-03-23T02:53:54;4.80;;;2.83;;
85054;SDS011;75391;48.300;16.352;2024-03-23T02:56:20;5.63;;;3.00;;
85054;SDS011;75391;48.300;16.352;2024-03-23T02:58:45;5.65;;;3.08;;
85054;SDS011;75391;48.300;16.352;2024-03-23T03:01:11;5.55;;;3.20;;
85054;SDS011;75391;48.300;16.352;2024-03-23T03:03:36;7.43;;;3.38;;
85054;SDS011;75391;48.300;16.352;2024-03-23T03:06:02;4.95;;;2.80;;
85054;SDS011;75391;48.300;16.352;2024-03-23T03:08:28;6.05;;;3.08;;
85054;SDS011;75391;48.300;16.352;2024-03-23T03:10:53;7.43;;;3.30;;
85054;SDS011;75391;48.300;16.352;2024-03-23T03:13:18;5.00;;;3.17;;
85054;SDS011;75391;48.300;16.352;2024-03-23T03:15:44;6.07;;;3.50;;
85054;SDS011;75391;48.300;16.352;2024-03-23T03:18:11;9.48;;;3.72;;
85054;SDS011;75391;48.300;16.352;2024-03-23T03:20:39;7.38;;;3.47;;
85054;SDS011;75391;48.300;16.352;2024-03-23T03:23:05;5.82;;;3.28;;
85054;SDS011;75391;48.300;16.352;2024-03-23T03:25:31;6.40;;;3.70;;
85054;SDS011;75391;48.300;16.352;2024-03-23T03:27:57;7.15;;;3.63;;
85054;SDS011;75391;48.300;16.352;2024-03-23T03:30:23;8.25;;;3.95;;
85054;SDS011;75391;48.300;16.352;2024-03-23T03:32:49;6.07;;;3.30;;
85054;SDS011;75391;48.300;16.352;2024-03-23T03:35:15;7.38;;;3.47;;
85054;SDS011;75391;48.300;16.352;2024-03-23T03:37:40;7.95;;;3.60;;
85054;SDS011;75391;48.300;16.352;2024-03-23T03:40:06;6.68;;;3.35;;
85054;SDS011;75391;48.300;16.352;2024-03-23T03:42:32;7.72;;;3.67;;
85054;SDS011;75391;48.300;16.352;2024-03-23T03:44:58;5.70;;;3.17;;
85054;SDS011;75391;48.300;16.352;2024-03-23T03:47:23;6.63;;;3.55;;
85054;SDS011;75391;48.300;16.352;2024-03-23T03:49:49;8.20;;;3.50;;
85054;SDS011;75391;48.300;16.352;2024-03-23T03:52:14;6.57;;;3.42;;
85054;SDS011;75391;48.300;16.352;2024-03-23T03:54:40;6.32;;;3.58;;
85054;SDS011;75391;48.300;16.352;2024-03-23T03:57:05;7.10;;;3.55;;
85054;SDS011;75391;48.300;16.352;2024-03-23T03:59:31;8.43;;;3.70;;
85054;SDS011;75391;48.300;16.352;2024-03-23T04:01:57;6.53;;;3.50;;
85054;SDS011;75391;48.300;16.352;2024-03-23T04:04:22;7.18;;;3.40;;
85054;SDS011;75391;48.300;16.352;2024-03-23T04:06:48;6.13;;;3.40;;
85054;SDS011;75391;48.300;16.352;2024-03-23T04:09:13;6.72;;;3.78;;
85054;SDS011;75391;48.300;16.352;2024-03-23T04:11:38;6.78;;;3.47;;
85054;SDS011;75391;48.300;16.352;2024-03-23T04:14:04;10.60;;;4.53;;
85054;SDS011;75391;48.300;16.352;2024-03-23T04:16:31;11.15;;;4.50;;
85054;SDS011;75391;48.300;16.352;2024-03-23T04:19:00;11.55;;;4.63;;
85054;SDS011;75391;48.300;16.352;2024-03-23T04:21:25;13.95;;;5.20;;
85054;SDS011;75391;48.300;16.352;2024-03-23T04:23:51;12.23;;;4.53;;
85054;SDS011;75391;48.300;16.352;2024-03-23T04:26:17;15.75;;;5.90;;
85054;SDS011;75391;48.300;16.352;2024-03-23T04:28:42;10.82;;;4.88;;
85054;SDS011;75391;48.300;16.352;2024-03-23T04:31:08;15.40;;;5.40;;
85054;SDS011;75391;48.300;16.352;2024-03-23T04:33:34;14.65;;;5.65;;
85054;SDS011;75391;48.300;16.352;2024-03-23T04:35:59;16.33;;;5.78;;
85054;SDS011;75391;48.300;16.352;2024-03-23T04:38:25;16.77;;;6.85;;
85054;SDS011;75391;48.300;16.352;2024-03-23T04:40:57;13.45;;;5.68;;
85054;SDS011;75391;48.300;16.352;2024-03-23T04:43:24;12.77;;;5.72;;
85054;SDS011;75391;48.300;16.352;2024-03-23T04:45:51;11.18;;;5.28;;
85054;SDS011;75391;48.300;16.352;2024-03-23T04:48:16;12.70;;;5.57;;
85054;SDS011;75391;48.300;16.352;2024-03-23T04:50:42;13.18;;;5.75;;
85054;SDS011;75391;48.300;16.352;2024-03-23T04:53:08;12.32;;;5.10;;
85054;SDS011;75391;48.300;16.352;2024-03-23T04:55:33;12.38;;;6.20;;
85054;SDS011;75391;48.300;16.352;2024-03-23T04:57:59;10.90;;;5.70;;
85054;SDS011;75391;48.300;16.352;2024-03-23T05:00:25;14.15;;;6.20;;
85054;SDS011;75391;48.300;16.352;2024-03-23T05:02:50;12.05;;;6.38;;
85054;SDS011;75391;48.300;16.352;2024-03-23T05:05:16;12.90;;;6.07;;
85054;SDS011;75391;48.300;16.352;2024-03-23T05:07:41;13.02;;;5.90;;
85054;SDS011;75391;48.300;16.352;2024-03-23T05:10:08;11.80;;;6.35;;
85054;SDS011;75391;48.300;16.352;2024-03-23T05:12:34;12.60;;;6.55;;
85054;SDS011;75391;48.300;16.352;2024-03-23T05:15:00;12.68;;;6.60;;
85054;SDS011;75391;48.300;16.352;2024-03-23T05:17:25;13.23;;;6.63;;
85054;SDS011;75391;48.300;16.352;2024-03-23T05:19:51;12.85;;;5.95;;
85054;SDS011;75391;48.300;16.352;2024-03-23T05:22:16;10.80;;;5.45;;
85054;SDS011;75391;48.300;16.352;2024-03-23T05:24:41;11.70;;;5.40;;
85054;SDS011;75391;48.300;16.352;2024-03-23T05:27:07;10.23;;;5.35;;
85054;SDS011;75391;48.300;16.352;2024-03-23T05:29:32;12.23;;;5.70;;
85054;SDS011;75391;48.300;16.352;2024-03-23T05:31:58;10.50;;;5.68;;
85054;SDS011;75391;48.300;16.352;2024-03-23T05:34:23;12.18;;;6.00;;
85054;SDS011;75391;48.300;16.352;2024-03-23T05:36:50;11.88;;;6.13;;
85054;SDS011;75391;48.300;16.352;2024-03-23T05:39:16;11.65;;;6.10;;
85054;SDS011;75391;48.300;16.352;2024-03-23T05:41:42;11.80;;;5.68;;
85054;SDS011;75391;48.300;16.352;2024-03-23T05:44:07;12.93;;;6.38;;
85054;SDS011;75391;48.300;16.352;2024-03-23T05:46:33;13.20;;;6.07;;
85054;SDS011;75391;48.300;16.352;2024-03-23T05:49:00;11.52;;;5.90;;
85054;SDS011;75391;48.300;16.352;2024-03-23T05:51:27;12.07;;;6.03;;
85054;SDS011;75391;48.300;16.352;2024-03-23T05:53:52;12.77;;;5.90;;
85054;SDS011;75391;48.300;16.352;2024-03-23T05:56:19;12.02;;;5.72;;
85054;SDS011;75391;48.300;16.352;2024-03-23T05:58:45;11.55;;;5.97;;
85054;SDS011;75391;48.300;16.352;2024-03-23T06:01:10;12.35;;;5.97;;
85054;SDS011;75391;48.300;16.352;2024-03-23T06:03:36;12.15;;;6.28;;
85054;SDS011;75391;48.300;16.352;2024-03-23T06:06:02;13.48;;;6.10;;
85054;SDS011;75391;48.300;16.352;2024-03-23T06:08:27;12.07;;;6.28;;
85054;SDS011;75391;48.300;16.352;2024-03-23T06:10:53;11.70;;;7.10;;
85054;SDS011;75391;48.300;16.352;2024-03-23T06:13:18;16.50;;;6.88;;
85054;SDS011;75391;48.300;16.352;2024-03-23T06:15:44;12.45;;;5.78;;
85054;SDS011;75391;48.300;16.352;2024-03-23T06:18:09;11.88;;;6.03;;
85054;SDS011;75391;48.300;16.352;2024-03-23T06:20:35;11.82;;;6.70;;
85054;SDS011;75391;48.300;16.352;2024-03-23T06:23:00;12.68;;;6.32;;
85054;SDS011;75391;48.300;16.352;2024-03-23T06:25:26;14.30;;;6.93;;
85054;SDS011;75391;48.300;16.352;2024-03-23T06:27:52;13.55;;;7.40;;
85054;SDS011;75391;48.300;16.352;2024-03-23T06:30:18;13.90;;;7.68;;
85054;SDS011;75391;48.300;16.352;2024-03-23T06:32:43;14.77;;;7.55;;
85054;SDS011;75391;48.300;16.352;2024-03-23T06:35:09;13.32;;;7.25;;
85054;SDS011;75391;48.300;16.352;2024-03-23T06:37:35;15.68;;;7.93;;
85054;SDS011;75391;48.300;16.352;2024-03-23T06:40:01;13.82;;;6.78;;
85054;SDS011;75391;48.300;16.352;2024-03-23T06:42:26;13.95;;;7.30;;
85054;SDS011;75391;48.300;16.352;2024-03-23T06:44:51;13.73;;;6.72;;
85054;SDS011;75391;48.300;16.352;2024-03-23T06:47:17;12.43;;;6.32;;
85054;SDS011;75391;48.300;16.352;2024-03-23T06:49:42;12.85;;;6.50;;
85054;SDS011;75391;48.300;16.352;2024-03-23T06:52:08;13.88;;;6.90;;
85054;SDS011;75391;48.300;16.352;2024-03-23T06:54:33;13.25;;;6.97;;
85054;SDS011;75391;48.300;16.352;2024-03-23T06:56:59;14.60;;;6.97;;
85054;SDS011;75391;48.300;16.352;2024-03-23T06:59:24;15.25;;;7.43;;
85054;SDS011;75391;48.300;16.352;2024-03-23T07:01:50;14.80;;;7.28;;
85054;SDS011;75391;48.300;16.352;2024-03-23T07:04:15;12.93;;;6.78;;
85054;SDS011;75391;48.300;16.352;2024-03-23T07:06:44;12.40;;;6.97;;
85054;SDS011;75391;48.300;16.352;2024-03-23T07:09:10;14.40;;;8.10;;
85054;SDS011;75391;48.300;16.352;2024-03-23T07:11:36;15.18;;;7.28;;
85054;SDS011;75391;48.300;16.352;2024-03-23T07:14:02;16.02;;;7.25;;
85054;SDS011;75391;48.300;16.352;2024-03-23T07:16:28;15.40;;;7.93;;
85054;SDS011;75391;48.300;16.352;2024-03-23T07:18:54;13.85;;;7.32;;
85054;SDS011;75391;48.300;16.352;2024-03-23T07:21:19;15.80;;;7.32;;
85054;SDS011;75391;48.300;16.352;2024-03-23T07:23:45;14.60;;;7.47;;
85054;SDS011;75391;48.300;16.352;2024-03-23T07:26:11;15.93;;;6.93;;
85054;SDS011;75391;48.300;16.352;2024-03-23T07:28:36;12.63;;;7.07;;
85054;SDS011;75391;48.300;16.352;2024-03-23T07:33:27;12.90;;;6.80;;
85054;SDS011;75391;48.300;16.352;2024-03-23T07:35:53;14.13;;;8.15;;
85054;SDS011;75391;48.300;16.352;2024-03-23T07:38:18;13.48;;;7.10;;
85054;SDS011;75391;48.300;16.352;2024-03-23T07:40:44;15.60;;;7.82;;
85054;SDS011;75391;48.300;16.352;2024-03-23T07:43:10;13.82;;;7.13;;
85054;SDS011;75391;48.300;16.352;2024-03-23T07:45:35;14.23;;;7.78;;
85054;SDS011;75391;48.300;16.352;2024-03-23T07:48:01;16.20;;;8.18;;
85054;SDS011;75391;48.300;16.352;2024-03-23T07:50:26;14.45;;;7.38;;
85054;SDS011;75391;48.300;16.352;2024-03-23T07:52:52;12.23;;;6.88;;
85054;SDS011;75391;48.300;16.352;2024-03-23T07:55:17;15.65;;;7.70;;
85054;SDS011;75391;48.300;16.352;2024-03-23T07:57:43;14.25;;;6.95;;
85054;SDS011;75391;48.300;16.352;2024-03-23T08:00:08;14.23;;;7.65;;
85054;SDS011;75391;48.300;16.352;2024-03-23T08:02:34;13.57;;;7.47;;
85054;SDS011;75391;48.300;16.352;2024-03-23T08:05:00;16.33;;;7.25;;
85054;SDS011;75391;48.300;16.352;2024-03-23T08:07:25;15.10;;;8.15;;
85054;SDS011;75391;48.300;16.352;2024-03-23T08:09:51;13.00;;;7.45;;
85054;SDS011;75391;48.300;16.352;2024-03-23T08:12:16;15.77;;;7.75;;
85054;SDS011;75391;48.300;16.352;2024-03-23T08:14:42;15.68;;;7.53;;
85054;SDS011;75391;48.300;16.352;2024-03-23T08:17:08;14.43;;;7.55;;
85054;SDS011;75391;48.300;16.352;2024-03-23T08:19:33;15.65;;;7.80;;
85054;SDS011;75391;48.300;16.352;2024-03-23T08:21:58;13.38;;;7.78;;
85054;SDS011;75391;48.300;16.352;2024-03-23T08:24:24;13.30;;;7.32;;
85054;SDS011;75391;48.300;16.352;2024-03-23T08:26:49;13.25;;;7.22;;
85054;SDS011;75391;48.300;16.352;2024-03-23T08:29:15;16.80;;;7.70;;
85054;SDS011;75391;48.300;16.352;2024-03-23T08:31:40;13.45;;;7.13;;
85054;SDS011;75391;48.300;16.352;2024-03-23T08:34:06;16.13;;;7.30;;
85054;SDS011;75391;48.300;16.352;2024-03-23T08:36:31;13.50;;;6.97;;
85054;SDS011;75391;48.300;16.352;2024-03-23T08:38:57;12.20;;;6.88;;
85054;SDS011;75391;48.300;16.352;2024-03-23T08:41:22;12.63;;;6.18;;
85054;SDS011;75391;48.300;16.352;2024-03-23T08:43:47;12.02;;;6.07;;
85054;SDS011;75391;48.300;16.352;2024-03-23T08:46:14;10.27;;;6.18;;
85054;SDS011;75391;48.300;16.352;2024-03-23T08:48:41;13.90;;;5.57;;
85054;SDS011;75391;48.300;16.352;2024-03-23T08:51:11;10.88;;;5.72;;
85054;SDS011;75391;48.300;16.352;2024-03-23T08:53:38;11.48;;;5.45;;
85054;SDS011;75391;48.300;16.352;2024-03-23T08:56:05;10.13;;;5.85;;
85054;SDS011;75391;48.300;16.352;2024-03-23T08:58:31;17.20;;;6.82;;
85054;SDS011;75391;48.300;16.352;2024-03-23T09:03:30;12.38;;;6.03;;
85054;SDS011;75391;48.300;16.352;2024-03-23T09:05:55;13.77;;;6.43;;
85054;SDS011;75391;48.300;16.352;2024-03-23T09:08:21;11.77;;;5.90;;
85054;SDS011;75391;48.300;16.352;2024-03-23T09:10:47;10.77;;;5.68;;
85054;SDS011;75391;48.300;16.352;2024-03-23T09:13:13;9.95;;;4.95;;
85054;SDS011;75391;48.300;16.352;2024-03-23T09:15:45;11.07;;;5.15;;
85054;SDS011;75391;48.300;16.352;2024-03-23T09:18:19;9.55;;;5.45;;
85054;SDS011;75391;48.300;16.352;2024-03-23T09:20:45;9.25;;;4.88;;
85054;SDS011;75391;48.300;16.352;2024-03-23T09:23:10;11.15;;;4.88;;
85054;SDS011;75391;48.300;16.352;2024-03-23T09:25:36;8.57;;;4.68;;
85054;SDS011;75391;48.300;16.352;2024-03-23T09:28:05;7.80;;;4.47;;
85054;SDS011;75391;48.300;16.352;2024-03-23T09:30:32;8.55;;;4.32;;
85054;SDS011;75391;48.300;16.352;2024-03-23T09:32:58;8.52;;;4.25;;
85054;SDS011;75391;48.300;16.352;2024-03-23T09:35:23;7.95;;;3.88;;
85054;SDS011;75391;48.300;16.352;2024-03-23T09:37:49;7.57;;;4.10;;
85054;SDS011;75391;48.300;16.352;2024-03-23T09:40:14;8.00;;;3.67;;
85054;SDS011;75391;48.300;16.352;2024-03-23T09:42:40;7.20;;;3.88;;
85054;SDS011;75391;48.300;16.352;2024-03-23T09:45:07;8.38;;;3.45;;
85054;SDS011;75391;48.300;16.352;2024-03-23T09:47:42;6.68;;;3.67;;
85054;SDS011;75391;48.300;16.352;2024-03-23T09:50:09;5.80;;;3.33;;
85054;SDS011;75391;48.300;16.352;2024-03-23T09:52:34;7.22;;;3.40;;
85054;SDS011;75391;48.300;16.352;2024-03-23T09:55:00;6.40;;;3.50;;
85054;SDS011;75391;48.300;16.352;2024-03-23T09:57:26;7.47;;;3.47;;
85054;SDS011;75391;48.300;16.352;2024-03-23T09:59:51;6.57;;;3.22;;
85054;SDS011;75391;48.300;16.352;2024-03-23T10:02:17;5.90;;;3.40;;
85054;SDS011;75391;48.300;16.352;2024-03-23T10:04:42;6.75;;;3.30;;
85054;SDS011;75391;48.300;16.352;2024-03-23T10:07:12;5.80;;;3.40;;
85054;SDS011;75391;48.300;16.352;2024-03-23T10:09:38;7.32;;;3.10;;
85054;SDS011;75391;48.300;16.352;2024-03-23T10:12:11;6.38;;;3.22;;
85054;SDS011;75391;48.300;16.352;2024-03-23T10:14:38;5.68;;;3.03;;
85054;SDS011;75391;48.300;16.352;2024-03-23T10:17:13;5.13;;;2.60;;
85054;SDS011;75391;48.300;16.352;2024-03-23T10:19:41;4.80;;;2.50;;
85054;SDS011;75391;48.300;16.352;2024-03-23T10:22:07;7.60;;;2.83;;
85054;SDS011;75391;48.300;16.352;2024-03-23T10:24:32;5.18;;;2.58;;
85054;SDS011;75391;48.300;16.352;2024-03-23T10:26:58;4.22;;;2.70;;
85054;SDS011;75391;48.300;16.352;2024-03-23T10:29:23;5.65;;;2.60;;
85054;SDS011;75391;48.300;16.352;2024-03-23T10:31:49;5.65;;;2.10;;
85054;SDS011;75391;48.300;16.352;2024-03-23T10:34:14;5.10;;;2.03;;
85054;SDS011;75391;48.300;16.352;2024-03-23T10:36:40;3.25;;;2.08;;
85054;SDS011;75391;48.300;16.352;2024-03-23T10:39:07;3.97;;;2.00;;
85054;SDS011;75391;48.300;16.352;2024-03-23T10:41:33;4.47;;;2.22;;
85054;SDS011;75391;48.300;16.352;2024-03-23T10:43:59;4.53;;;2.00;;
85054;SDS011;75391;48.300;16.352;2024-03-23T10:46:26;4.72;;;2.05;;
85054;SDS011;75391;48.300;16.352;2024-03-23T10:48:52;4.88;;;1.98;;
85054;SDS011;75391;48.300;16.352;2024-03-23T10:51:18;4.55;;;2.22;;
85054;SDS011;75391;48.300;16.352;2024-03-23T10:53:43;4.43;;;1.58;;
85054;SDS011;75391;48.300;16.352;2024-03-23T10:56:11;4.95;;;2.05;;
85054;SDS011;75391;48.300;16.352;2024-03-23T10:58:39;4.03;;;2.10;;
85054;SDS011;75391;48.300;16.352;2024-03-23T11:01:10;3.00;;;2.08;;
85054;SDS011;75391;48.300;16.352;2024-03-23T11:03:37;4.50;;;2.00;;
85054;SDS011;75391;48.300;16.352;2024-03-23T11:06:03;3.65;;;2.00;;
85054;SDS011;75391;48.300;16.352;2024-03-23T11:08:30;2.90;;;1.85;;
85054;SDS011;75391;48.300;16.352;2024-03-23T11:13:49;2.25;;;1.50;;
85054;SDS011;75391;48.300;16.352;2024-03-23T11:18:51;2.92;;;1.50;;
85054;SDS011;75391;48.300;16.352;2024-03-23T11:26:42;4.30;;;1.30;;
85054;SDS011;75391;48.300;16.352;2024-03-23T11:29:11;2.67;;;1.52;;
85054;SDS011;75391;48.300;16.352;2024-03-23T11:31:38;5.03;;;1.40;;
85054;SDS011;75391;48.300;16.352;2024-03-23T11:34:10;3.95;;;1.70;;
85054;SDS011;75391;48.300;16.352;2024-03-23T11:36:36;4.53;;;1.33;;
85054;SDS011;75391;48.300;16.352;2024-03-23T11:39:11;3.65;;;1.40;;
85054;SDS011;75391;48.300;16.352;2024-03-23T11:41:44;3.50;;;1.42;;
85054;SDS011;75391;48.300;16.352;2024-03-23T11:44:17;4.28;;;1.52;;
85054;SDS011;75391;48.300;16.352;2024-03-23T11:46:46;3.75;;;1.48;;
85054;SDS011;75391;48.300;16.352;2024-03-23T11:51:47;2.72;;;1.70;;
85054;SDS011;75391;48.300;16.352;2024-03-23T11:54:13;3.88;;;1.65;;
85054;SDS011;75391;48.300;16.352;2024-03-23T11:56:39;4.55;;;1.70;;
85054;SDS011;75391;48.300;16.352;2024-03-23T11:59:05;4.78;;;1.70;;
85054;SDS011;75391;48.300;16.352;2024-03-23T12:01:32;3.20;;;1.33;;
85054;SDS011;75391;48.300;16.352;2024-03-23T12:03:57;2.78;;;1.50;;
85054;SDS011;75391;48.300;16.352;2024-03-23T12:06:22;3.33;;;1.40;;
85054;SDS011;75391;48.300;16.352;2024-03-23T12:08:48;2.20;;;1.33;;
85054;SDS011;75391;48.300;16.352;2024-03-23T12:11:15;3.28;;;1.80;;
85054;SDS011;75391;48.300;16.352;2024-03-23T12:13:42;2.28;;;1.63;;
85054;SDS011;75391;48.300;16.352;2024-03-23T12:18:45;2.55;;;1.70;;
85054;SDS011;75391;48.300;16.352;2024-03-23T12:21:12;4.05;;;1.50;;
85054;SDS011;75391;48.300;16.352;2024-03-23T12:23:40;4.63;;;1.70;;
85054;SDS011;75391;48.300;16.352;2024-03-23T12:26:06;1.77;;;1.33;;
85054;SDS011;75391;48.300;16.352;2024-03-23T12:28:32;3.03;;;1.48;;
85054;SDS011;75391;48.300;16.352;2024-03-23T12:30:58;2.47;;;1.50;;
85054;SDS011;75391;48.300;16.352;2024-03-23T12:33:24;3.80;;;1.63;;
85054;SDS011;75391;48.300;16.352;2024-03-23T12:35:50;3.00;;;1.50;;
85054;SDS011;75391;48.300;16.352;2024-03-23T12:38:16;3.60;;;1.50;;
85054;SDS011;75391;48.300;16.352;2024-03-23T12:40:41;2.70;;;1.45;;
85054;SDS011;75391;48.300;16.352;2024-03-23T12:43:07;3.55;;;1.50;;
85054;SDS011;75391;48.300;16.352;2024-03-23T12:45:33;4.70;;;1.50;;
85054;SDS011;75391;48.300;16.352;2024-03-23T12:47:58;2.08;;;1.50;;
85054;SDS011;75391;48.300;16.352;2024-03-23T12:50:24;2.92;;;1.60;;
85054;SDS011;75391;48.300;16.352;2024-03-23T12:52:50;1.75;;;1.33;;
85054;SDS011;75391;48.300;16.352;2024-03-23T12:55:15;4.60;;;1.70;;
85054;SDS011;75391;48.300;16.352;2024-03-23T12:57:41;5.50;;;1.40;;
85054;SDS011;75391;48.300;16.352;2024-03-23T13:00:06;4.40;;;1.50;;
85054;SDS011;75391;48.300;16.352;2024-03-23T13:02:33;1.05;;;0.88;;
85054;SDS011;75391;48.300;16.352;2024-03-23T13:04:58;4.32;;;0.90;;
85054;SDS011;75391;48.300;16.352;2024-03-23T13:07:24;2.08;;;0.93;;
85054;SDS011;75391;48.300;16.352;2024-03-23T13:09:50;4.00;;;1.10;;
85054;SDS011;75391;48.300;16.352;2024-03-23T13:12:16;3.25;;;0.90;;
85054;SDS011;75391;48.300;16.352;2024-03-23T13:14:41;2.78;;;0.82;;
85054;SDS011;75391;48.300;16.352;2024-03-23T13:17:07;3.05;;;0.90;;
85054;SDS011;75391;48.300;16.352;2024-03-23T13:19:33;5.13;;;0.80;;
85054;SDS011;75391;48.300;16.352;2024-03-23T13:21:59;3.25;;;1.02;;
85054;SDS011;75391;48.300;16.352;2024-03-23T13:24:26;3.55;;;0.90;;
85054;SDS011;75391;48.300;16.352;2024-03-23T13:26:52;3.20;;;0.80;;
85054;SDS011;75391;48.300;16.352;2024-03-23T13:29:19;3.15;;;1.00;;
85054;SDS011;75391;48.300;16.352;2024-03-23T13:31:45;1.65;;;0.65;;
85054;SDS011;75391;48.300;16.352;2024-03-23T13:34:12;2.15;;;0.90;;
85054;SDS011;75391;48.300;16.352;2024-03-23T13:36:44;0.63;;;0.57;;
85054;SDS011;75391;48.300;16.352;2024-03-23T13:39:10;0.80;;;0.50;;
85054;SDS011;75391;48.300;16.352;2024-03-23T13:41:40;2.17;;;0.60;;
85054;SDS011;75391;48.300;16.352;2024-03-23T13:44:06;0.60;;;0.60;;
85054;SDS011;75391;48.300;16.352;2024-03-23T13:46:33;3.60;;;0.85;;
85054;SDS011;75391;48.300;16.352;2024-03-23T13:48:59;2.83;;;1.00;;
85054;SDS011;75391;48.300;16.352;2024-03-23T13:51:25;1.67;;;0.80;;
85054;SDS011;75391;48.300;16.352;2024-03-23T13:53:51;0.77;;;0.63;;
85054;SDS011;75391;48.300;16.352;2024-03-23T13:56:16;1.05;;;0.80;;
85054;SDS011;75391;48.300;16.352;2024-03-23T13:58:42;1.00;;;0.63;;
85054;SDS011;75391;48.300;16.352;2024-03-23T14:01:07;1.65;;;0.93;;
85054;SDS011;75391;48.300;16.352;2024-03-23T14:03:33;0.88;;;0.70;;
85054;SDS011;75391;48.300;16.352;2024-03-23T14:05:59;1.92;;;0.80;;
85054;SDS011;75391;48.300;16.352;2024-03-23T14:08:24;0.68;;;0.65;;
85054;SDS011;75391;48.300;16.352;2024-03-23T14:10:50;1.63;;;0.73;;
85054;SDS011;75391;48.300;16.352;2024-03-23T14:13:15;0.77;;;0.70;;
85054;SDS011;75391;48.300;16.352;2024-03-23T14:15:40;1.25;;;0.75;;
85054;SDS011;75391;48.300;16.352;2024-03-23T14:18:06;1.20;;;0.70;;
85054;SDS011;75391;48.300;16.352;2024-03-23T14:20:32;0.95;;;0.93;;
85054;SDS011;75391;48.300;16.352;2024-03-23T14:22:57;1.30;;;0.90;;
85054;SDS011;75391;48.300;16.352;2024-03-23T14:25:23;2.25;;;1.00;;
85054;SDS011;75391;48.300;16.352;2024-03-23T14:27:49;2.30;;;1.10;;
85054;SDS011;75391;48.300;16.352;2024-03-23T14:30:14;1.08;;;0.98;;
85054;SDS011;75391;48.300;16.352;2024-03-23T14:32:40;0.93;;;0.82;;
85054;SDS011;75391;48.300;16.352;2024-03-23T14:35:06;2.38;;;0.90;;
85054;SDS011;75391;48.300;16.352;2024-03-23T14:37:32;2.10;;;1.00;;
85054;SDS011;75391;48.300;16.352;2024-03-23T14:39:57;1.45;;;1.00;;
85054;SDS011;75391;48.300;16.352;2024-03-23T14:42:24;2.05;;;1.00;;
85054;SDS011;75391;48.300;16.352;2024-03-23T14:44:50;2.70;;;1.20;;
85054;SDS011;75391;48.300;16.352;2024-03-23T14:47:16;2.28;;;1.00;;
85054;SDS011;75391;48.300;16.352;2024-03-23T14:49:41;2.00;;;1.30;;
85054;SDS011;75391;48.300;16.352;2024-03-23T14:52:08;2.90;;;1.20;;
85054;SDS011;75391;48.300;16.352;2024-03-23T14:54:33;2.13;;;1.20;;
85054;SDS011;75391;48.300;16.352;2024-03-23T14:56:59;2.17;;;1.48;;
85054;SDS011;75391;48.300;16.352;2024-03-23T14:59:25;3.47;;;1.27;;
85054;SDS011;75391;48.300;16.352;2024-03-23T15:01:50;1.98;;;1.10;;
85054;SDS011;75391;48.300;16.352;2024-03-23T15:04:16;2.83;;;1.20;;
85054;SDS011;75391;48.300;16.352;2024-03-23T15:06:41;2.13;;;1.17;;
85054;SDS011;75391;48.300;16.352;2024-03-23T15:09:07;1.90;;;1.20;;
85054;SDS011;75391;48.300;16.352;2024-03-23T15:11:32;1.17;;;1.00;;
85054;SDS011;75391;48.300;16.352;2024-03-23T15:13:58;2.55;;;1.00;;
85054;SDS011;75391;48.300;16.352;2024-03-23T15:16:23;5.15;;;1.05;;
85054;SDS011;75391;48.300;16.352;2024-03-23T15:18:49;2.25;;;0.90;;
85054;SDS011;75391;48.300;16.352;2024-03-23T15:21:14;2.28;;;0.93;;
85054;SDS011;75391;48.300;16.352;2024-03-23T15:23:40;3.45;;;1.15;;
85054;SDS011;75391;48.300;16.352;2024-03-23T15:26:05;2.25;;;1.10;;
85054;SDS011;75391;48.300;16.352;2024-03-23T15:28:31;3.75;;;0.90;;
85054;SDS011;75391;48.300;16.352;2024-03-23T15:30:58;1.50;;;0.73;;
85054;SDS011;75391;48.300;16.352;2024-03-23T15:33:24;1.77;;;0.60;;
85054;SDS011;75391;48.300;16.352;2024-03-23T15:35:49;1.23;;;0.60;;
85054;SDS011;75391;48.300;16.352;2024-03-23T15:38:15;2.75;;;0.85;;
85054;SDS011;75391;48.300;16.352;2024-03-23T15:40:40;1.08;;;0.98;;